Alexandria, Missouri
Current Conditions -  °F | °C
As of 12:10 AM on Wednesday 28 Jan 2015 (Local Time) from KEOK Reporting Station
Haze Haze  
Wind Chill: 23°   Ceiling: 700
Heat Index: 30°   Visibility: 6mi
Dew Point: 28°   Wind: 7mph
Humidity: 93%   Direction: 150°SSE
Pressure: 30.22"   Gusts: NA
Location:  40.36°N, 91.46°W
Report Text: KEOK 280610Z AUTO 15006KT 6SM BR OVC007 M01/M02 A3022 RMK AO2
Loading
Personal Weather Stations






























Interactive Weather Map New forecast layout! Learn more

10-Day Weather Forecast

Advertisements
Track Severe Weather on mobile